createdAt,value
2022-12-05T00:01:20.243Z,19.80
2022-12-05T00:03:59.323Z,19.30
2022-12-05T00:06:35.011Z,19.10
2022-12-05T00:09:09.963Z,20.00
2022-12-05T00:11:46.076Z,20.20
2022-12-05T00:14:19.520Z,21.10
2022-12-05T00:16:53.660Z,21.20
2022-12-05T00:19:27.107Z,21.40
2022-12-05T00:22:00.417Z,20.00
2022-12-05T00:24:33.799Z,18.90
2022-12-05T00:27:07.229Z,19.00
2022-12-05T00:29:40.883Z,18.10
2022-12-05T00:32:14.206Z,18.90
2022-12-05T00:34:47.939Z,21.90
2022-12-05T00:37:21.686Z,21.50
2022-12-05T00:39:55.372Z,21.60
2022-12-05T00:42:29.652Z,21.30
2022-12-05T00:45:03.052Z,22.00
2022-12-05T00:47:38.129Z,21.70
2022-12-05T00:50:12.560Z,19.60
2022-12-05T00:52:45.857Z,20.20
2022-12-05T00:55:19.331Z,19.70
2022-12-05T00:57:52.820Z,20.20
2022-12-05T01:00:26.566Z,19.50
2022-12-05T01:03:01.445Z,19.90
2022-12-05T01:05:37.091Z,21.00
2022-12-05T01:08:10.454Z,20.60
2022-12-05T01:10:43.734Z,18.70
2022-12-05T01:13:17.411Z,19.70
2022-12-05T01:15:50.861Z,19.20
2022-12-05T01:18:25.093Z,19.30
2022-12-05T01:20:58.511Z,21.80
2022-12-05T01:23:32.276Z,18.30
2022-12-05T01:26:10.769Z,19.80
2022-12-05T01:28:45.009Z,24.10
2022-12-05T01:31:24.133Z,22.60
2022-12-05T01:34:00.901Z,21.30
2022-12-05T01:36:35.130Z,21.80
2022-12-05T01:39:08.980Z,21.50
2022-12-05T01:41:45.594Z,20.10
2022-12-05T01:44:54.043Z,23.70
2022-12-05T01:47:30.745Z,19.70
2022-12-05T01:50:05.349Z,19.80
2022-12-05T01:52:40.062Z,20.40
2022-12-05T01:55:17.443Z,24.70
2022-12-05T01:57:51.515Z,20.70
2022-12-05T02:00:25.844Z,21.70
2022-12-05T02:03:01.458Z,24.20
2022-12-05T02:05:36.647Z,21.60
2022-12-05T02:08:13.289Z,22.50
2022-12-05T02:10:49.144Z,21.70
2022-12-05T02:13:45.467Z,22.10
2022-12-05T02:16:30.194Z,24.10
2022-12-05T02:19:18.448Z,20.20
2022-12-05T02:22:11.673Z,21.20
2022-12-05T02:25:24.452Z,20.00
2022-12-05T02:28:21.860Z,18.60
2022-12-05T02:31:00.070Z,20.30
2022-12-05T02:33:42.250Z,18.80
2022-12-05T02:36:24.618Z,20.20
2022-12-05T02:39:06.123Z,17.80
2022-12-05T02:41:47.473Z,20.00
2022-12-05T02:44:24.308Z,20.40
2022-12-05T02:46:58.476Z,18.90
2022-12-05T02:49:35.698Z,20.20
2022-12-05T02:52:14.238Z,20.80
2022-12-05T02:57:24.948Z,19.00
2022-12-05T02:59:58.440Z,20.20
2022-12-05T03:02:35.347Z,21.00
2022-12-05T03:05:21.704Z,20.20
2022-12-05T03:07:59.908Z,18.60
2022-12-05T03:10:38.620Z,17.90
2022-12-05T03:13:17.685Z,18.70
2022-12-05T03:15:54.830Z,16.40
2022-12-05T03:18:32.426Z,19.20
2022-12-05T03:21:13.369Z,16.10
2022-12-05T03:23:51.246Z,15.60
2022-12-05T03:26:35.716Z,17.10
2022-12-05T03:29:20.210Z,15.80
2022-12-05T03:32:03.864Z,15.20
2022-12-05T03:34:49.747Z,14.60
2022-12-05T03:37:29.558Z,16.40
2022-12-05T03:40:13.379Z,17.50
2022-12-05T03:42:55.656Z,17.10
2022-12-05T03:45:36.499Z,16.30
2022-12-05T03:48:16.786Z,17.00
2022-12-05T03:50:52.110Z,17.00
2022-12-05T03:53:30.507Z,15.20
2022-12-05T03:56:07.981Z,15.20
2022-12-05T03:58:45.428Z,15.50
2022-12-05T04:01:21.165Z,16.70
2022-12-05T04:03:59.245Z,17.40
2022-12-05T04:06:36.325Z,14.20
2022-12-05T04:09:17.311Z,15.40
2022-12-05T04:11:56.337Z,16.50
2022-12-05T04:17:09.624Z,14.20
2022-12-05T04:20:05.961Z,15.00
2022-12-05T04:22:40.438Z,20.20
2022-12-05T04:25:35.568Z,17.60
2022-12-05T04:28:23.520Z,17.40
2022-12-05T04:31:04.688Z,18.80
2022-12-05T04:33:44.960Z,16.50
2022-12-05T04:36:23.227Z,15.90
2022-12-05T04:39:01.665Z,16.20
2022-12-05T04:41:39.224Z,17.60
2022-12-05T04:44:17.724Z,15.80
2022-12-05T04:46:55.030Z,16.40
2022-12-05T04:49:32.635Z,16.50
2022-12-05T04:52:10.115Z,14.50
2022-12-05T04:54:48.656Z,15.30
2022-12-05T04:57:26.663Z,14.20
2022-12-05T05:00:00.755Z,15.00
2022-12-05T05:02:42.392Z,16.70
2022-12-05T05:05:18.758Z,16.50
2022-12-05T05:07:56.859Z,15.90
2022-12-05T05:10:41.581Z,15.70
2022-12-05T05:13:15.554Z,15.80
2022-12-05T05:15:49.319Z,17.50
2022-12-05T05:18:23.051Z,15.20
2022-12-05T05:20:56.250Z,14.10
2022-12-05T05:23:29.926Z,16.80
2022-12-05T05:26:03.577Z,16.90
2022-12-05T05:28:37.519Z,14.30
2022-12-05T05:31:11.302Z,19.70
2022-12-05T05:33:45.117Z,16.50
2022-12-05T05:36:19.700Z,17.50
2022-12-05T05:38:55.142Z,17.30
2022-12-05T05:41:31.340Z,18.10
2022-12-05T05:44:05.526Z,17.40
2022-12-05T05:46:39.282Z,15.60
2022-12-05T05:49:13.854Z,14.80
2022-12-05T05:51:47.160Z,13.70
2022-12-05T05:54:20.807Z,16.30
2022-12-05T05:56:54.310Z,15.20
2022-12-05T05:59:27.904Z,16.90
2022-12-05T06:02:01.562Z,16.30
2022-12-05T06:04:36.280Z,16.50
2022-12-05T06:07:09.762Z,16.10
2022-12-05T06:09:43.417Z,16.90
2022-12-05T06:12:17.298Z,15.10
2022-12-05T06:14:52.972Z,15.30
2022-12-05T06:17:26.685Z,15.00
2022-12-05T06:20:00.897Z,16.70
2022-12-05T06:22:34.659Z,17.40
2022-12-05T06:25:09.469Z,17.00
2022-12-05T06:27:43.104Z,16.40
2022-12-05T06:30:18.224Z,16.50
2022-12-05T06:32:51.739Z,19.40
2022-12-05T06:35:25.284Z,16.10
2022-12-05T06:37:58.944Z,15.70
2022-12-05T06:40:32.680Z,16.90
2022-12-05T06:43:06.030Z,18.00
2022-12-05T06:45:41.138Z,16.70
2022-12-05T06:48:15.443Z,17.40
2022-12-05T06:50:53.988Z,18.40
2022-12-05T06:56:03.952Z,16.30
2022-12-05T06:58:37.400Z,18.80
2022-12-05T07:01:32.690Z,19.20
2022-12-05T07:04:08.118Z,18.60
2022-12-05T07:06:46.156Z,16.20
2022-12-05T07:09:45.300Z,17.30
2022-12-05T07:12:20.877Z,19.40
2022-12-05T07:14:54.396Z,17.70
2022-12-05T07:17:27.912Z,19.40
2022-12-05T07:20:02.376Z,18.60
2022-12-05T07:22:37.716Z,18.30
2022-12-05T07:25:12.311Z,17.50
2022-12-05T07:27:46.024Z,17.00
2022-12-05T07:30:20.191Z,18.80
2022-12-05T07:32:54.240Z,19.80
2022-12-05T07:35:27.908Z,17.20
2022-12-05T07:38:01.525Z,17.60
2022-12-05T07:40:35.601Z,17.50
2022-12-05T07:43:09.164Z,15.00
2022-12-05T07:45:42.799Z,19.30
2022-12-05T07:48:18.688Z,19.90
2022-12-05T07:50:52.672Z,16.60
2022-12-05T07:53:26.665Z,18.70
2022-12-05T07:56:02.547Z,20.10
2022-12-05T07:58:37.312Z,17.30
2022-12-05T08:01:12.933Z,18.00
2022-12-05T08:03:47.235Z,17.20
2022-12-05T08:06:22.673Z,16.90
2022-12-05T08:08:56.985Z,19.70
2022-12-05T08:11:32.832Z,16.80
2022-12-05T08:14:07.717Z,18.50
2022-12-05T08:16:41.285Z,18.80
2022-12-05T08:19:18.305Z,17.00
2022-12-05T08:21:52.758Z,19.90
2022-12-05T08:24:26.703Z,19.10
2022-12-05T08:26:59.966Z,20.10
2022-12-05T08:29:33.664Z,17.00
2022-12-05T08:32:07.470Z,18.30
2022-12-05T08:34:41.545Z,20.10
2022-12-05T08:37:14.959Z,17.90
2022-12-05T08:39:48.542Z,18.70
2022-12-05T08:42:21.928Z,18.00
2022-12-05T08:44:55.463Z,19.60
2022-12-05T08:47:29.870Z,17.40
2022-12-05T08:50:04.600Z,18.10
2022-12-05T08:52:38.740Z,19.70
2022-12-05T08:55:13.219Z,18.50
2022-12-05T08:57:46.726Z,16.90
2022-12-05T09:00:22.293Z,19.90
2022-12-05T09:02:56.135Z,17.80
2022-12-05T09:05:30.847Z,20.50
2022-12-05T09:08:05.406Z,20.20
2022-12-05T09:10:40.839Z,20.00
2022-12-05T09:13:14.982Z,20.90
2022-12-05T09:15:48.246Z,19.40
2022-12-05T09:18:21.579Z,19.20
2022-12-05T09:20:55.142Z,21.00
2022-12-05T09:23:28.739Z,18.00
2022-12-05T09:26:03.440Z,20.00
2022-12-05T09:28:37.434Z,20.10
2022-12-05T09:31:13.789Z,21.90
2022-12-05T09:33:50.673Z,18.70
2022-12-05T09:36:25.978Z,21.40
2022-12-05T09:39:02.007Z,19.10
2022-12-05T09:42:13.604Z,20.20
2022-12-05T09:44:57.714Z,23.20
2022-12-05T09:47:47.915Z,20.20
2022-12-05T09:50:28.629Z,18.60
2022-12-05T09:53:12.527Z,22.10
2022-12-05T09:55:54.476Z,21.10
2022-12-05T09:58:38.949Z,21.50
2022-12-05T10:01:26.856Z,22.20
2022-12-05T10:04:19.263Z,21.60
2022-12-05T10:07:03.511Z,21.40
2022-12-05T10:09:55.667Z,21.70
2022-12-05T10:12:46.941Z,22.40
2022-12-05T10:15:29.201Z,21.70
2022-12-05T10:18:11.098Z,22.50
2022-12-05T10:20:49.983Z,22.60
2022-12-05T10:23:56.015Z,21.00
2022-12-05T10:26:23.776Z,22.00
2022-12-05T10:29:04.137Z,25.50
2022-12-05T10:31:41.610Z,23.00
2022-12-05T10:34:23.820Z,20.00
2022-12-05T10:37:03.408Z,23.30
2022-12-05T10:39:37.642Z,23.00
2022-12-05T10:42:18.918Z,24.20
2022-12-05T10:44:57.253Z,21.10
2022-12-05T10:50:10.083Z,24.00
2022-12-05T10:52:43.500Z,22.30
2022-12-05T10:55:21.711Z,20.90
2022-12-05T10:58:16.847Z,21.70
2022-12-05T11:00:53.899Z,23.20
2022-12-05T11:03:31.124Z,25.10
2022-12-05T11:06:19.141Z,24.00
2022-12-05T11:09:05.782Z,25.10
2022-12-05T11:11:40.032Z,20.40
2022-12-05T11:14:27.665Z,23.00
2022-12-05T11:17:04.459Z,26.80
2022-12-05T11:19:40.009Z,27.10
2022-12-05T11:22:20.897Z,25.10
2022-12-05T11:24:55.077Z,25.10
2022-12-05T11:27:33.588Z,27.90
2022-12-05T11:30:21.733Z,26.30
2022-12-05T11:33:12.790Z,27.20
2022-12-05T11:35:47.644Z,23.80
2022-12-05T11:38:26.306Z,25.70
2022-12-05T11:41:12.540Z,25.00
2022-12-05T11:44:05.051Z,23.30
2022-12-05T11:46:48.427Z,28.10
2022-12-05T11:49:58.219Z,24.90
